• Join FlightAware (Why Join?)
  • Login
  • US Flag 
05:57PM EDT


 

Airport Tracker/Info


-or-


 

Live Flight TrackerFlight Track Log ✈ N305DS ✈ 26-May-2014 ✈ KEVV - M02

Flight Track Log - Related Links

Times and Time Zones

All times are in EDT time to prevent confusion due to time zone crossing. See the N305DS flight status page for this flight to view local times or setup timezone preferences in your user account.

Time Position Orientation Groundspeed Altitude Reporting Facility
EDT Latitude Longitude Course Direction KTS MPH feet Rate Location/Type
01:02PM 37.9647 -87.5350 175° South 165 190 4,200  Level Indianapolis Center
01:03PM 37.9094 -87.5292 175° South 164 189 7,100 2,520 Climbing Indianapolis Center
01:04PM 37.8617 -87.5275 178° South 168 193 9,500 2,280 Climbing Indianapolis Center
01:05PM 37.8108 -87.5264 179° South 179 206 11,900 1,980 Climbing Indianapolis Center
01:06PM 37.7597 -87.5275 181° South 184 212 13,600 1,020 Climbing Indianapolis Center
01:07PM 38.0178 -87.5287 175° South  Level FlightAware Approximate
01:07PM 37.6947 -87.5247 178° South 223 257 14,100  Level Indianapolis Center
01:08PM 37.9663 -87.5235 175° South  Level FlightAware Approximate
01:08PM 37.6039 -87.5167 176° South 274 315 14,100  Level Indianapolis Center
01:09PM 37.5236 -87.5164 180° South 281 323 14,100  Level Indianapolis Center
01:10PM 37.4431 -87.5094 176° South 283 326 14,100  Level Indianapolis Center
01:11PM 37.3644 -87.5033 176° South 283 326 14,100  Level Indianapolis Center
01:13PM 37.2550 -87.4997 178° South 283 326 14,100  Level Memphis Center
01:13PM 37.2128 -87.4956 176° South 286 329 14,100 -720 Level Memphis Center
01:14PM 37.1744 -87.4953 180° South 284 327 13,400 -1,500 Descending Memphis Center
01:14PM 37.1481 -87.4917 174° South 288 331 12,900 -1,080 Descending Memphis Center
01:15PM 37.0947 -87.4897 178° South 285 328 12,300 -1,140 Descending Memphis Center
01:15PM 37.0669 -87.4872 176° South 278 320 11,800 -1,020 Descending Memphis Center
01:16PM 37.0197 -87.4819 175° South 275 316 11,300 -720 Descending Memphis Center
01:16PM 36.9981 -87.4806 177° South 260 299 11,100 -1,200 Descending Memphis Center
01:17PM 36.9478 -87.4736 174° South 261 300 10,100 -1,320 Descending Memphis Center
01:17PM 36.9211 -87.4711 176° South 259 298 9,800 -780 Descending Memphis Center
01:18PM 36.8736 -87.4656 175° South 262 302 9,300 -840 Descending Memphis Center
01:18PM 36.8522 -87.4617 172° South 258 297 9,000 -900 Descending Memphis Center
01:19PM 36.8028 -87.4578 176° South 259 298 8,400 -1,020 Descending Memphis Center
01:19PM 36.7794 -87.4550 175° South 254 292 8,000 -600 Descending Memphis Center
01:20PM 36.7314 -87.4517 177° South 256 295 7,800 -300 Descending Memphis Center
01:20PM 36.7128 -87.4511 179° South 242 278 7,700 -600 Descending Memphis Center
01:21PM 36.6417 -87.4547 182° South 236 272 7,100 -600 Descending Memphis Center
01:22PM 36.5883 -87.4553 180° South 238 274 6,600 -660 Descending Memphis Center
01:23PM 36.5208 -87.4483 175° South 237 273 5,900 -960 Descending Memphis Center
01:24PM 36.4522 -87.4506 181° South 239 275 4,700 -1,140 Descending Memphis Center
01:25PM 36.3856 -87.4578 185° South 243 280 3,600 -840 Descending Memphis Center
01:26PM 36.3278 -87.4644 185° South 225 259 3,000 -300 Descending Memphis Center
01:27PM 36.2831 -87.4578 173° South 183 211 3,000  Level Memphis Center